Time;durP1;ratioP1;P1;durP2;ratioP2;P2;SDS_P1;SDS_P2;PMS_P1;PMS_P2;Temp;Humidity;BMP_temperature;BMP_pressure;BME280_temperature;BME280_humidity;BME280_pressure;Samples;Min_cycle;Max_cycle;Signal;HPM_P1;HPM_P2
2022/11/01 00:01:54;;;;;;;;;;;;;;;-143.57;100.00;50978.97;4964945;28;20265;-66
2022/11/01 00:04:21;;;;;;;;;;;;;;;-143.57;100.00;50945.19;4963773;28;19937;-66
2022/11/01 00:06:48;;;;;;;;;;;;;;;-143.57;100.00;50953.13;4964795;28;20422;-66
2022/11/01 00:09:15;;;;;;;;;;;;;;;-143.57;100.00;50933.25;4964820;28;20020;-66
2022/11/01 00:11:42;;;;;;;;;;;;;;;-143.57;100.00;50933.25;4968081;28;19938;-66
2022/11/01 00:14:13;;;;;;;;;;;;;;;-143.57;100.00;50980.97;4961732;28;20522;-66
2022/11/01 00:16:40;;;;;;;;;;;;;;;-143.57;100.00;50953.13;4966614;28;19930;-67
2022/11/01 00:19:07;;;;;;;;;;;;;;;-143.57;100.00;50975.00;4969015;28;19961;-66
2022/11/01 00:21:34;;;;;;;;;;;;;;;-143.57;100.00;50949.16;4970718;28;20014;-66
2022/11/01 00:24:00;;;;;;;;;;;;;;;-143.57;100.00;50990.91;4969297;28;19934;-66
2022/11/01 00:26:27;;;;;;;;;;;;;;;-143.57;100.00;50976.97;4969203;28;19956;-67
2022/11/01 00:28:54;;;;;;;;;;;;;;;-143.57;100.00;50988.91;4953986;28;20024;-66
2022/11/01 00:31:21;;;;;;;;;;;;;;;-143.57;100.00;50976.97;4970286;28;20036;-66
2022/11/01 00:33:47;;;;;;;;;;;;;;;-143.57;100.00;51016.72;4970839;28;20261;-66
2022/11/01 00:36:14;;;;;;;;;;;;;;;-143.57;100.00;50961.06;4964134;28;20025;-67
2022/11/01 00:38:40;;;;;;;;;;;;;;;-143.57;100.00;50988.91;4969503;28;19930;-67
2022/11/01 00:41:07;;;;;;;;;;;;;;;-143.57;100.00;50973.00;4968985;28;19926;-67
2022/11/01 00:43:35;;;;;;;;;;;;;;;-143.57;100.00;50969.03;4972281;28;20048;-67
2022/11/01 00:46:02;;;;;;;;;;;;;;;-143.57;100.00;50990.91;4968698;28;19933;-67
2022/11/01 00:48:28;;;;;;;;;;;;;;;-143.57;100.00;50980.97;4968976;28;19966;-67
2022/11/01 00:50:55;;;;;;;;;;;;;;;-143.57;100.00;50973.00;4967132;28;20547;-67
2022/11/01 00:53:21;;;;;;;;;;;;;;;-143.57;100.00;50988.91;4969467;28;20292;-67
2022/11/01 00:55:48;;;;;;;;;;;;;;;-143.57;100.00;51000.84;4969558;28;19937;-67
2022/11/01 00:58:15;;;;;;;;;;;;;;;-143.57;100.00;50984.94;4967766;28;20024;-67
2022/11/01 01:00:41;;;;;;;;;;;;;;;-143.57;100.00;51004.81;4967771;28;19934;-67
2022/11/01 01:03:08;;;;;;;;;;;;;;;-143.57;100.00;50967.03;4963793;28;19926;-67
2022/11/01 01:05:35;;;;;;;;;;;;;;;-143.57;100.00;50965.06;4968595;28;19965;-67
2022/11/01 01:08:02;;;;;;;;;;;;;;;-143.57;100.00;50975.00;4966975;28;19930;-67
2022/11/01 01:10:28;;;;;;;;;;;;;;;-143.57;100.00;50973.00;4967149;28;19965;-67
2022/11/01 01:12:55;;;;;;;;;;;;;;;-143.57;100.00;50971.03;4970671;28;20064;-66
2022/11/01 01:15:22;;;;;;;;;;;;;;;-143.57;100.00;50976.97;4964262;28;19934;-66
2022/11/01 01:17:48;;;;;;;;;;;;;;;-143.57;100.00;50967.03;4961734;28;19926;-66
2022/11/01 01:20:15;;;;;;;;;;;;;;;-143.57;100.00;51010.78;4968219;28;20024;-65
2022/11/01 01:22:42;;;;;;;;;;;;;;;-143.57;100.00;50973.00;4968810;28;20027;-67
2022/11/01 01:25:09;;;;;;;;;;;;;;;-143.57;100.00;50996.84;4965615;28;20420;-66
2022/11/01 01:27:36;;;;;;;;;;;;;;;-143.57;100.00;50965.06;4970300;28;19930;-67
2022/11/01 01:30:04;;;;;;;;;;;;;;;-143.57;100.00;50969.03;4967858;28;19977;-67
2022/11/01 01:32:31;;;;;;;;;;;;;;;-143.57;100.00;51000.84;4969363;28;19971;-66
2022/11/01 01:34:57;;;;;;;;;;;;;;;-143.57;100.00;50969.03;4970211;28;19936;-66
2022/11/01 01:37:24;;;;;;;;;;;;;;;-143.57;100.00;50982.94;4967456;28;20020;-66
2022/11/01 01:39:51;;;;;;;;;;;;;;;-143.57;100.00;51016.72;4968243;28;20658;-66
2022/11/01 01:42:28;;;;;;;;;;;;;;;-143.57;100.00;50976.97;4970745;28;20007;-66
2022/11/01 01:44:54;;;;;;;;;;;;;;;-143.57;100.00;50961.06;4970370;28;19930;-66
2022/11/01 01:47:23;;;;;;;;;;;;;;;-143.57;100.00;50980.97;4974093;28;19965;-66
2022/11/01 01:49:53;;;;;;;;;;;;;;;-143.57;100.00;50992.88;4972735;28;19930;-66
2022/11/01 01:52:26;;;;;;;;;;;;;;;-143.57;100.00;50965.06;4971956;28;20355;-66
2022/11/01 01:54:53;;;;;;;;;;;;;;;-143.57;100.00;50976.97;4967580;28;19926;-66
2022/11/01 01:57:19;;;;;;;;;;;;;;;-143.57;100.00;50971.03;4965565;28;20793;-65
2022/11/01 01:59:46;;;;;;;;;;;;;;;-143.57;100.00;50988.91;4971268;28;20013;-68
2022/11/01 02:02:13;;;;;;;;;;;;;;;-143.57;100.00;51022.69;4972206;28;20552;-67
2022/11/01 02:05:01;;;;;;;;;;;;;;;-143.57;100.00;50984.94;4974155;28;19933;-68
2022/11/01 02:07:28;;;;;;;;;;;;;;;-143.57;100.00;50984.94;4965683;28;19996;-67
2022/11/01 02:09:55;;;;;;;;;;;;;;;-143.57;100.00;50965.06;4970066;28;20005;-67
2022/11/01 02:12:23;;;;;;;;;;;;;;;-143.57;100.00;50984.94;4976190;28;19931;-67
2022/11/01 02:14:50;;;;;;;;;;;;;;;-143.57;100.00;50978.97;4973481;28;20009;-67
2022/11/01 02:17:17;;;;;;;;;;;;;;;-143.57;100.00;50961.06;4952282;28;19926;-67
2022/11/01 02:19:55;;;;;;;;;;;;;;;-143.57;100.00;50986.91;4967807;28;19977;-66
2022/11/01 02:22:40;;;;;;;;;;;;;;;-143.57;100.00;50957.09;4968757;28;20189;-67
2022/11/01 02:25:22;;;;;;;;;;;;;;;-143.57;100.00;50969.03;4970965;28;19974;-67
2022/11/01 02:27:55;;;;;;;;;;;;;;;-143.57;100.00;50976.97;4973020;28;19932;-66
2022/11/01 02:30:22;;;;;;;;;;;;;;;-143.57;100.00;50965.06;4968617;28;19926;-67
2022/11/01 02:33:09;;;;;;;;;;;;;;;-143.57;100.00;50984.94;4970037;28;20020;-66
2022/11/01 02:35:42;;;;;;;;;;;;;;;-143.57;100.00;50965.06;4975456;28;19937;-66
2022/11/01 02:38:18;;;;;;;;;;;;;;;-143.57;100.00;50971.03;4967805;28;20001;-67
2022/11/01 02:41:00;;;;;;;;;;;;;;;-143.57;100.00;50996.84;4969722;28;20016;-67
2022/11/01 02:43:40;;;;;;;;;;;;;;;-143.57;100.00;50984.94;4967247;28;20032;-66
2022/11/01 02:48:55;;;;;;;;;;;;;;;-143.57;100.00;50961.06;4963769;28;19941;-67
2022/11/01 02:51:23;;;;;;;;;;;;;;;-143.57;100.00;51024.69;4972010;28;19936;-67
2022/11/01 02:53:50;;;;;;;;;;;;;;;-143.57;100.00;50984.94;4971328;28;20022;-67
2022/11/01 02:56:17;;;;;;;;;;;;;;;-143.57;100.00;51020.72;4972357;28;19929;-67
2022/11/01 02:58:45;;;;;;;;;;;;;;;-143.57;100.00;50961.06;4968058;28;20008;-66
2022/11/01 03:01:15;;;;;;;;;;;;;;;-143.57;100.00;50990.91;4971773;28;19980;-67
2022/11/01 03:03:43;;;;;;;;;;;;;;;-143.57;100.00;50984.94;4972367;28;20234;-67
2022/11/01 03:06:30;;;;;;;;;;;;;;;-143.57;100.00;51014.75;4968773;28;20045;-67
2022/11/01 03:08:59;;;;;;;;;;;;;;;-143.57;100.00;50992.88;4968462;28;20032;-67
2022/11/01 03:11:32;;;;;;;;;;;;;;;-143.57;100.00;50984.94;4969570;28;19980;-68
2022/11/01 03:13:59;;;;;;;;;;;;;;;-143.57;100.00;50976.97;4971738;28;19934;-67
2022/11/01 03:16:34;;;;;;;;;;;;;;;-143.57;100.00;50975.00;4964989;28;19937;-67
2022/11/01 03:19:05;;;;;;;;;;;;;;;-143.57;100.00;51000.84;4969301;28;19961;-67
2022/11/01 03:21:36;;;;;;;;;;;;;;;-143.57;100.00;50990.91;4963386;28;20497;-67
2022/11/01 03:24:03;;;;;;;;;;;;;;;-143.57;100.00;51000.84;4966968;28;19965;-67
2022/11/01 03:26:32;;;;;;;;;;;;;;;-143.57;100.00;50982.94;4967345;28;19925;-67
2022/11/01 03:29:02;;;;;;;;;;;;;;;-143.57;100.00;50984.94;4972153;28;20724;-67
2022/11/01 03:31:30;;;;;;;;;;;;;;;-143.57;100.00;50982.94;4965724;28;20024;-67
2022/11/01 03:33:59;;;;;;;;;;;;;;;-143.57;100.00;50980.97;4971442;28;20338;-66
2022/11/01 03:36:35;;;;;;;;;;;;;;;-143.57;100.00;51032.63;4969230;28;20532;-67
2022/11/01 03:39:03;;;;;;;;;;;;;;;-143.57;100.00;51004.81;4967588;28;19957;-67
2022/11/01 03:41:33;;;;;;;;;;;;;;;-143.57;100.00;51008.78;4965377;28;20680;-66
2022/11/01 03:44:01;;;;;;;;;;;;;;;-143.57;100.00;50963.06;4969991;28;20008;-67
2022/11/01 03:46:27;;;;;;;;;;;;;;;-143.57;100.00;50988.91;4972725;28;20609;-67
2022/11/01 03:48:54;;;;;;;;;;;;;;;-143.57;100.00;50976.97;4970617;28;19937;-67
2022/11/01 03:51:20;;;;;;;;;;;;;;;-143.57;100.00;50973.00;4975000;28;19972;-67
2022/11/01 03:53:47;;;;;;;;;;;;;;;-143.57;100.00;50953.13;4968695;28;19934;-66
2022/11/01 03:56:14;;;;;;;;;;;;;;;-143.57;100.00;50988.91;4975989;28;21400;-67
2022/11/01 03:58:40;;;;;;;;;;;;;;;-143.57;100.00;50961.06;4968770;28;20554;-67
2022/11/01 04:01:08;;;;;;;;;;;;;;;-143.57;100.00;50973.00;4972732;28;19937;-67
2022/11/01 04:03:35;;;;;;;;;;;;;;;-143.57;100.00;51024.69;4971353;28;20928;-67
2022/11/01 04:06:02;;;;;;;;;;;;;;;-143.57;100.00;50980.97;4971179;28;19930;-66
2022/11/01 04:08:28;;;;;;;;;;;;;;;-143.57;100.00;50980.97;4969317;28;19926;-65
2022/11/01 04:10:55;;;;;;;;;;;;;;;-143.57;100.00;51008.78;4964237;28;19968;-65
2022/11/01 04:13:22;;;;;;;;;;;;;;;-143.57;100.00;51044.56;4961336;28;19967;-65
2022/11/01 04:21:22;;;;;;;;;;;;;;;-143.57;100.00;50978.97;4969597;28;21599;-65
2022/11/01 04:23:48;;;;;;;;;;;;;;;-143.57;100.00;50971.03;4970139;28;19925;-66
2022/11/01 04:26:16;;;;;;;;;;;;;;;-143.57;100.00;50973.00;4965867;28;19930;-66
2022/11/01 04:28:55;;;;;;;;;;;;;;;-143.57;100.00;51048.53;4971754;28;19925;-65
2022/11/01 04:31:24;;;;;;;;;;;;;;;-143.57;100.00;51024.69;4965636;28;19961;-65
2022/11/01 04:33:51;;;;;;;;;;;;;;;-143.57;100.00;51000.84;4968992;28;19952;-65
2022/11/01 04:36:17;;;;;;;;;;;;;;;-143.57;100.00;51032.63;4969222;28;19934;-66
2022/11/01 04:38:47;;;;;;;;;;;;;;;-143.57;100.00;50988.91;4965502;28;19966;-66
2022/11/01 04:41:15;;;;;;;;;;;;;;;-143.57;100.00;50988.91;4962075;28;20000;-66
2022/11/01 04:43:41;;;;;;;;;;;;;;;-143.57;100.00;50996.84;4962697;28;19935;-66
2022/11/01 04:46:08;;;;;;;;;;;;;;;-143.57;100.00;50988.91;4963282;28;20360;-66
2022/11/01 04:48:35;;;;;;;;;;;;;;;-143.57;100.00;51024.69;4973284;28;19938;-66
2022/11/01 04:51:01;;;;;;;;;;;;;;;-143.57;100.00;50992.88;4965286;28;20144;-66
2022/11/01 04:53:28;;;;;;;;;;;;;;;-143.57;100.00;50973.00;4972750;28;20016;-65
2022/11/01 04:55:55;;;;;;;;;;;;;;;-143.57;100.00;50984.94;4963559;28;19962;-65
2022/11/01 04:58:21;;;;;;;;;;;;;;;-143.57;100.00;50975.00;4949062;28;19945;-66
2022/11/01 05:00:48;;;;;;;;;;;;;;;-143.57;100.00;50996.84;4968286;28;19980;-66
2022/11/01 05:03:15;;;;;;;;;;;;;;;-143.57;100.00;50992.88;4966959;28;19961;-67
2022/11/01 05:05:41;;;;;;;;;;;;;;;-143.57;100.00;50973.00;4970201;28;19997;-66
2022/11/01 05:08:09;;;;;;;;;;;;;;;-143.57;100.00;51000.84;4962194;28;19976;-65
2022/11/01 05:10:40;;;;;;;;;;;;;;;-143.57;100.00;50984.94;4962830;28;20029;-66
2022/11/01 05:13:07;;;;;;;;;;;;;;;-143.57;100.00;51028.66;4964013;28;19934;-66
2022/11/01 05:15:34;;;;;;;;;;;;;;;-143.57;100.00;51008.78;4967976;28;20000;-65
2022/11/01 05:18:09;;;;;;;;;;;;;;;-143.57;100.00;50984.94;4958408;28;20642;-65
2022/11/01 05:20:35;;;;;;;;;;;;;;;-143.57;100.00;51008.78;4961786;28;19962;-66
2022/11/01 05:23:03;;;;;;;;;;;;;;;-143.57;100.00;50996.84;4958572;28;20267;-65
2022/11/01 05:25:31;;;;;;;;;;;;;;;-143.57;100.00;51006.78;4972534;28;19961;-65
2022/11/01 05:28:12;;;;;;;;;;;;;;;-143.57;100.00;51020.72;4957605;28;19980;-65
2022/11/01 05:30:39;;;;;;;;;;;;;;;-143.57;100.00;51004.81;4962275;28;20238;-65
2022/11/01 05:33:07;;;;;;;;;;;;;;;-143.57;100.00;51020.72;4964222;28;19930;-64
2022/11/01 05:35:34;;;;;;;;;;;;;;;-143.57;100.00;51012.75;4972690;28;19993;-65
2022/11/01 05:38:02;;;;;;;;;;;;;;;-143.57;100.00;51044.56;4970884;28;19984;-66
2022/11/01 05:40:30;;;;;;;;;;;;;;;-143.57;100.00;51016.72;4970992;28;19932;-66
2022/11/01 05:42:57;;;;;;;;;;;;;;;-143.57;100.00;51036.63;4968719;28;19936;-65
2022/11/01 05:45:23;;;;;;;;;;;;;;;-143.57;100.00;51032.63;4963970;28;19938;-66
2022/11/01 05:47:50;;;;;;;;;;;;;;;-143.57;100.00;50988.91;4963704;28;21102;-66
2022/11/01 05:50:17;;;;;;;;;;;;;;;-143.57;100.00;51012.75;4959356;28;19993;-65
2022/11/01 05:52:44;;;;;;;;;;;;;;;-143.57;100.00;51032.63;4968147;28;19969;-65
2022/11/01 05:55:10;;;;;;;;;;;;;;;-143.57;100.00;51010.78;4962148;28;19926;-65
2022/11/01 05:57:37;;;;;;;;;;;;;;;-143.57;100.00;51012.75;4963525;28;20036;-65
2022/11/01 06:00:05;;;;;;;;;;;;;;;-143.57;100.00;51008.78;4962062;28;20872;-66
2022/11/01 06:02:37;;;;;;;;;;;;;;;-143.57;100.00;51024.69;4963176;28;20568;-64
2022/11/01 06:05:04;;;;;;;;;;;;;;;-143.57;100.00;51008.78;4967457;28;20053;-65
2022/11/01 06:07:31;;;;;;;;;;;;;;;-143.57;100.00;51032.63;4964077;28;20603;-65
2022/11/01 06:09:57;;;;;;;;;;;;;;;-143.57;100.00;51032.63;4972474;28;20041;-65
2022/11/01 06:12:24;;;;;;;;;;;;;;;-143.57;100.00;51040.59;4966630;28;19941;-65
2022/11/01 06:14:51;;;;;;;;;;;;;;;-143.57;100.00;50996.84;4966719;28;19930;-64
2022/11/01 06:17:17;;;;;;;;;;;;;;;-143.57;100.00;51052.50;4967865;28;20013;-65
2022/11/01 06:19:44;;;;;;;;;;;;;;;-143.57;100.00;51028.66;4972692;28;19941;-65
2022/11/01 06:22:11;;;;;;;;;;;;;;;-143.57;100.00;51054.50;4969358;28;20029;-65
2022/11/01 06:24:37;;;;;;;;;;;;;;;-143.57;100.00;51030.66;4969723;28;19965;-65
2022/11/01 06:27:04;;;;;;;;;;;;;;;-143.57;100.00;51008.78;4971831;28;20879;-64
2022/11/01 06:29:37;;;;;;;;;;;;;;;-143.57;100.00;50998.84;4951945;28;19929;-65
2022/11/01 06:32:04;;;;;;;;;;;;;;;-143.57;100.00;50996.84;4969439;28;20807;-65
2022/11/01 06:34:31;;;;;;;;;;;;;;;-143.57;100.00;50982.94;4969204;28;19929;-65
2022/11/01 06:36:58;;;;;;;;;;;;;;;-143.57;100.00;51012.75;4970294;28;19957;-63
2022/11/01 06:39:25;;;;;;;;;;;;;;;-143.57;100.00;51006.78;4967794;28;20569;-64
2022/11/01 06:41:51;;;;;;;;;;;;;;;-143.57;100.00;50988.91;4967983;28;19976;-63
2022/11/01 06:44:18;;;;;;;;;;;;;;;-143.57;100.00;51032.63;4967842;28;19933;-63
2022/11/01 06:46:45;;;;;;;;;;;;;;;-143.57;100.00;51004.81;4965979;28;20973;-65
2022/11/01 06:49:11;;;;;;;;;;;;;;;-143.57;100.00;51008.78;4964716;28;19930;-65
2022/11/01 06:51:44;;;;;;;;;;;;;;;-143.57;100.00;50996.84;4972132;28;19934;-66
2022/11/01 06:54:11;;;;;;;;;;;;;;;-143.57;100.00;51012.75;4964638;28;19927;-66
2022/11/01 06:56:37;;;;;;;;;;;;;;;-143.57;100.00;51016.72;4965797;28;20467;-67
2022/11/01 06:59:04;;;;;;;;;;;;;;;-143.57;100.00;50996.84;4965471;28;20485;-66
2022/11/01 07:01:31;;;;;;;;;;;;;;;-143.57;100.00;51012.75;4960692;28;19945;-66
2022/11/01 07:03:58;;;;;;;;;;;;;;;-143.57;100.00;51016.72;4964959;28;20023;-65
2022/11/01 07:06:29;;;;;;;;;;;;;;;-143.57;100.00;51020.72;4970943;28;20392;-66
2022/11/01 07:08:57;;;;;;;;;;;;;;;-143.57;100.00;51028.66;4965931;28;19934;-67
2022/11/01 07:11:24;;;;;;;;;;;;;;;-143.57;100.00;50988.91;4963082;28;19925;-67
2022/11/01 07:13:56;;;;;;;;;;;;;;;-143.57;100.00;51052.50;4963941;28;19985;-67
2022/11/01 07:16:23;;;;;;;;;;;;;;;-143.57;100.00;51024.69;4966962;28;19934;-68
2022/11/01 07:18:50;;;;;;;;;;;;;;;-143.57;100.00;51028.66;4968748;28;19961;-68
2022/11/01 07:21:16;;;;;;;;;;;;;;;-143.57;100.00;50976.97;4961794;28;19981;-67
2022/11/01 07:23:43;;;;;;;;;;;;;;;-143.57;100.00;51008.78;4961211;28;19938;-67
2022/11/01 07:26:10;;;;;;;;;;;;;;;-143.57;100.00;51020.72;4963151;28;19988;-67
2022/11/01 07:28:38;;;;;;;;;;;;;;;-143.57;100.00;51012.75;4962575;28;19934;-67
2022/11/01 07:31:05;;;;;;;;;;;;;;;-143.57;100.00;51032.63;4962703;28;19930;-67
2022/11/01 07:33:31;;;;;;;;;;;;;;;-143.57;100.00;51016.72;4966570;28;20331;-68
2022/11/01 07:35:59;;;;;;;;;;;;;;;-143.57;100.00;51024.69;4960470;28;20009;-68
2022/11/01 07:38:26;;;;;;;;;;;;;;;-143.57;100.00;51036.63;4959271;28;19926;-67
2022/11/01 07:40:53;;;;;;;;;;;;;;;-143.57;100.00;51010.78;4963597;28;20032;-68
2022/11/01 07:43:20;;;;;;;;;;;;;;;-143.57;100.00;51032.63;4964558;28;19946;-68
2022/11/01 07:45:47;;;;;;;;;;;;;;;-143.57;100.00;50992.88;4970291;28;19969;-68
2022/11/01 07:48:15;;;;;;;;;;;;;;;-143.57;100.00;51002.81;4963263;28;19941;-68
2022/11/01 07:50:43;;;;;;;;;;;;;;;-143.57;100.00;51016.72;4966219;28;20016;-68
2022/11/01 07:53:10;;;;;;;;;;;;;;;-143.57;100.00;51004.81;4960047;28;20489;-68
2022/11/01 07:55:37;;;;;;;;;;;;;;;-143.57;100.00;51016.72;4961349;28;19930;-68
2022/11/01 07:58:04;;;;;;;;;;;;;;;-143.57;100.00;51024.69;4959944;28;19938;-68
2022/11/01 08:08:36;;;;;;;;;;;;;;;-143.57;100.00;51004.81;4944292;28;20630;-70
2022/11/01 08:11:03;;;;;;;;;;;;;;;-143.57;100.00;51032.63;4961782;28;19954;-69
2022/11/01 08:13:29;;;;;;;;;;;;;;;-143.57;100.00;51056.50;4953780;28;20021;-69
2022/11/01 08:15:59;;;;;;;;;;;;;;;-143.57;100.00;50996.84;4968252;28;20037;-69
2022/11/01 08:18:25;;;;;;;;;;;;;;;-143.57;100.00;51028.66;4963929;28;19941;-68
2022/11/01 08:20:52;;;;;;;;;;;;;;;-143.57;100.00;51016.72;4965002;28;20380;-68
2022/11/01 08:23:19;;;;;;;;;;;;;;;-143.57;100.00;51034.63;4959995;28;19930;-70
2022/11/01 08:25:46;;;;;;;;;;;;;;;-143.57;100.00;51002.81;4968098;28;19930;-70
2022/11/01 08:28:14;;;;;;;;;;;;;;;-143.57;100.00;51038.59;4968848;28;19930;-69
2022/11/01 08:30:41;;;;;;;;;;;;;;;-143.57;100.00;51038.59;4970948;28;20015;-69
2022/11/01 08:33:08;;;;;;;;;;;;;;;-143.57;100.00;51004.81;4970197;28;19934;-70
2022/11/01 08:35:35;;;;;;;;;;;;;;;-143.57;100.00;51008.78;4962960;28;20373;-70
2022/11/01 08:41:29;;;;;;;;;;;;;;;-143.57;100.00;51008.78;5085260;27;19928;-69
2022/11/01 08:43:58;;;;;;;;;;;;;;;-143.57;100.00;51040.59;5074399;28;20519;-68
2022/11/01 08:46:25;;;;;;;;;;;;;;;-143.57;100.00;51024.69;5069613;28;19932;-70
2022/11/01 08:48:55;;;;;;;;;;;;;;;-143.57;100.00;51020.72;5074879;28;20548;-68
2022/11/01 08:51:24;;;;;;;;;;;;;;;-143.57;100.00;51002.81;5069714;28;20017;-64
2022/11/01 08:53:55;;;;;;;;;;;;;;;-143.57;100.00;50992.88;5076982;27;19928;-66
2022/11/01 08:56:23;;;;;;;;;;;;;;;-143.57;100.00;50980.97;5077941;28;19932;-67
2022/11/01 08:58:50;;;;;;;;;;;;;;;-143.57;100.00;51052.50;5078838;28;19928;-67
2022/11/01 09:01:17;;;;;;;;;;;;;;;-143.57;100.00;51048.53;5075395;28;20015;-67
2022/11/01 09:03:44;;;;;;;;;;;;;;;-143.57;100.00;51008.78;5075914;28;19931;-67
2022/11/01 09:06:11;;;;;;;;;;;;;;;-143.57;100.00;51014.75;5076926;28;19935;-67
2022/11/01 09:08:37;;;;;;;;;;;;;;;-143.57;100.00;51040.59;5074700;28;20787;-67
2022/11/01 09:11:05;;;;;;;;;;;;;;;-143.57;100.00;51008.78;5074914;28;20405;-67
2022/11/01 09:13:32;;;;;;;;;;;;;;;-143.57;100.00;51032.63;5075373;28;19928;-67
2022/11/01 09:16:03;;;;;;;;;;;;;;;-143.57;100.00;51020.72;5076084;28;19933;-67
2022/11/01 09:18:29;;;;;;;;;;;;;;;-143.57;100.00;50984.94;5071052;28;19932;-67
2022/11/01 09:20:56;;;;;;;;;;;;;;;-143.57;100.00;51008.78;5071244;28;20018;-67
2022/11/01 09:23:23;;;;;;;;;;;;;;;-143.57;95.15;51032.63;5072450;28;19925;-67
2022/11/01 09:25:49;;;;;;;;;;;;;;;-143.57;94.33;51024.69;5076669;28;20442;-67
2022/11/01 09:28:16;;;;;;;;;;;;;;;-143.57;94.14;51012.75;5074395;28;20446;-67
2022/11/01 09:30:42;;;;;;;;;;;;;;;-143.57;93.96;51004.81;5076952;28;19928;-67
2022/11/01 09:33:22;;;;;;;;;;;;;;;-143.57;94.31;51052.50;5080404;28;20385;-67
2022/11/01 09:35:49;;;;;;;;;;;;;;;-143.57;92.25;51036.63;5076088;28;20615;-67
2022/11/01 09:38:22;;;;;;;;;;;;;;;-143.57;93.46;51016.72;5074182;28;19947;-67
2022/11/01 09:40:55;;;;;;;;;;;;;;;-143.57;92.75;51032.63;5076097;28;19928;-67
2022/11/01 09:43:25;;;;;;;;;;;;;;;-143.57;64.11;51028.66;5073096;28;19993;-67
2022/11/01 09:45:53;;;;;;;;;;;;;;;-143.57;62.38;51004.81;5075244;28;20050;-67
2022/11/01 09:48:20;;;;;;;;;;;;;;;-143.57;61.50;51026.69;5076108;28;19976;-67
2022/11/01 09:50:46;;;;;;;;;;;;;;;-143.57;61.25;51036.63;5072391;28;20001;-67
2022/11/01 09:53:17;;;;;;;;;;;;;;;-143.57;61.73;50992.88;5063268;28;19939;-67
2022/11/01 09:55:54;;;;;;;;;;;;;;;-143.57;61.06;51020.72;5058064;28;19935;-66
2022/11/01 09:58:25;;;;;;;;;;;;;;;-143.57;59.47;51044.56;5062295;28;20636;-66
2022/11/01 10:01:15;;;;;;;;;;;;;;;-143.57;59.37;51004.81;5057463;28;19928;-65
2022/11/01 10:03:50;;;;;;;;;;;;;;;-143.57;59.48;51024.69;5057195;28;19925;-66
2022/11/01 10:06:26;;;;;;;;;;;;;;;-143.57;58.20;51020.72;5057622;28;19963;-67
2022/11/01 10:08:54;;;;;;;;;;;;;;;-143.57;57.66;51008.78;5063376;28;20023;-66
2022/11/01 10:11:39;;;;;;;;;;;;;;;-143.57;57.68;51050.53;5061171;28;20742;-65
2022/11/01 10:14:08;;;;;;;;;;;;;;;-143.57;56.54;51012.75;5065144;28;21286;-66
2022/11/01 10:16:42;;;;;;;;;;;;;;;-143.57;55.97;51060.47;5061486;28;19989;-66
2022/11/01 10:19:16;;;;;;;;;;;;;;;-143.57;56.43;51012.75;5057133;28;19928;-66
2022/11/01 10:21:47;;;;;;;;;;;;;;;-143.57;55.11;51004.81;5060632;28;19979;-67
2022/11/01 10:24:17;;;;;;;;;;;;;;;-143.57;55.69;51046.56;5063919;28;20054;-66
2022/11/01 10:26:45;;;;;;;;;;;;;;;-143.57;54.91;51044.56;5059384;28;20484;-65
2022/11/01 10:29:15;;;;;;;;;;;;;;;-143.57;54.89;51026.69;5062034;28;20466;-66
2022/11/01 10:31:44;;;;;;;;;;;;;;;-143.57;53.03;50992.88;5062321;28;19925;-67
2022/11/01 10:34:21;;;;;;;;;;;;;;;-143.57;53.32;50996.84;5063171;28;19932;-67
2022/11/01 10:36:49;;;;;;;;;;;;;;;-143.57;52.25;51036.63;5061121;28;19924;-67
2022/11/01 10:39:37;;;;;;;;;;;;;;;-143.57;51.79;51048.53;5058067;28;19968;-66
2022/11/01 10:42:22;;;;;;;;;;;;;;;-143.57;50.90;51036.63;5080672;27;19928;-67
2022/11/01 10:44:54;;;;;;;;;;;;;;;-143.57;51.14;51008.78;5059189;28;21476;-67
2022/11/01 10:47:22;;;;;;;;;;;;;;;-143.57;51.18;51008.78;5060594;28;19928;-67
2022/11/01 10:49:55;;;;;;;;;;;;;;;-143.57;50.07;51036.63;5058520;28;19968;-66
2022/11/01 10:52:45;;;;;;;;;;;;;;;-143.57;48.77;51012.75;5062910;28;20578;-65
2022/11/01 10:55:14;;;;;;;;;;;;;;;-143.57;47.85;51014.75;5059329;28;19928;-66
2022/11/01 10:57:44;;;;;;;;;;;;;;;-143.57;47.76;51028.66;5061620;28;20379;-67
2022/11/01 11:00:15;;;;;;;;;;;;;;;-143.57;47.18;51016.72;5059101;28;19971;-68
2022/11/01 11:02:44;;;;;;;;;;;;;;;-143.57;46.73;51040.59;5054497;28;19929;-68
2022/11/01 11:05:17;;;;;;;;;;;;;;;-143.57;46.00;51012.75;5055670;28;19974;-66
2022/11/01 11:07:44;;;;;;;;;;;;;;;-143.57;45.70;51032.63;5059198;28;20633;-68
2022/11/01 11:10:16;;;;;;;;;;;;;;;-143.57;45.03;51008.78;5057387;28;20001;-66
2022/11/01 11:12:51;;;;;;;;;;;;;;;-143.57;44.75;51016.72;5058286;28;19928;-67
2022/11/01 11:15:20;;;;;;;;;;;;;;;-143.57;45.17;51024.69;5059273;28;20019;-67
2022/11/01 11:17:50;;;;;;;;;;;;;;;-143.57;43.22;50996.84;5060667;28;20654;-67
2022/11/01 11:20:19;;;;;;;;;;;;;;;-143.57;41.43;51024.69;5057297;28;19930;-68
2022/11/01 11:22:46;;;;;;;;;;;;;;;-143.57;41.75;51024.69;5057180;28;19928;-67
2022/11/01 11:25:15;;;;;;;;;;;;;;;-143.57;40.62;51012.75;5060075;28;20163;-67
2022/11/01 11:27:44;;;;;;;;;;;;;;;-143.57;40.57;51028.66;5057484;28;19924;-66
2022/11/01 11:30:13;;;;;;;;;;;;;;;-143.57;40.25;51036.63;5058140;28;21237;-67
2022/11/01 11:32:47;;;;;;;;;;;;;;;-143.57;39.80;51010.78;5056766;28;20023;-67
2022/11/01 11:35:13;;;;;;;;;;;;;;;-143.57;39.55;51008.78;5059755;28;20021;-68
2022/11/01 11:37:49;;;;;;;;;;;;;;;-143.57;39.30;51044.56;5055890;28;20017;-66
2022/11/01 11:40:16;;;;;;;;;;;;;;;-143.57;38.97;51016.72;5061064;28;19981;-66
2022/11/01 11:42:44;;;;;;;;;;;;;;;-143.57;38.37;51012.75;5058274;28;19925;-66
2022/11/01 11:45:11;;;;;;;;;;;;;;;-143.57;37.40;50996.84;5060171;28;19932;-65
2022/11/01 11:47:38;;;;;;;;;;;;;;;-143.57;36.78;51020.72;5058561;28;19932;-66
2022/11/01 11:50:20;;;;;;;;;;;;;;;-143.57;36.39;51022.69;5063116;28;20427;-66
2022/11/01 11:52:48;;;;;;;;;;;;;;;-143.57;36.75;51022.69;5057978;28;19928;-66
2022/11/01 11:55:34;;;;;;;;;;;;;;;-143.57;36.75;51044.56;5060121;28;19944;-67
2022/11/01 11:58:03;;;;;;;;;;;;;;;-143.57;36.18;51048.53;5057315;28;19989;-68
2022/11/01 12:00:32;;;;;;;;;;;;;;;-143.57;35.91;51012.75;5060712;28;19960;-66
2022/11/01 12:03:01;;;;;;;;;;;;;;;-143.57;35.92;51012.75;5056917;28;20462;-66
2022/11/01 12:05:28;;;;;;;;;;;;;;;-143.57;36.15;51010.78;5060135;28;20340;-66
2022/11/01 12:07:55;;;;;;;;;;;;;;;-143.57;35.55;51036.63;5061392;28;19932;-66
2022/11/01 12:10:31;;;;;;;;;;;;;;;-143.57;35.24;51008.78;5060337;28;19928;-66
2022/11/01 12:12:58;;;;;;;;;;;;;;;-143.57;35.05;51028.66;5058772;28;21408;-66
2022/11/01 12:15:25;;;;;;;;;;;;;;;-143.57;34.19;50984.94;5058601;28;19972;-66
2022/11/01 12:17:52;;;;;;;;;;;;;;;-143.57;34.32;51008.78;5060705;28;19963;-66
2022/11/01 12:20:20;;;;;;;;;;;;;;;-143.57;32.63;51028.66;5059551;28;19939;-66
2022/11/01 12:22:49;;;;;;;;;;;;;;;-143.57;31.99;50998.84;5061548;28;19928;-64
2022/11/01 12:25:19;;;;;;;;;;;;;;;-143.57;31.08;50976.97;5058007;28;19935;-66
2022/11/01 12:28:09;;;;;;;;;;;;;;;-143.57;30.21;50994.88;5062752;28;19929;-66
2022/11/01 12:30:36;;;;;;;;;;;;;;;-143.57;29.35;50986.91;5045001;28;20241;-66
2022/11/01 12:33:24;;;;;;;;;;;;;;;-143.57;28.34;50988.91;5062546;28;20022;-66
2022/11/01 12:35:53;;;;;;;;;;;;;;;-143.57;27.86;50965.06;5058928;28;20715;-67
2022/11/01 12:38:52;;;;;;;;;;;;;;;-143.57;27.83;50988.91;5060299;28;19932;-66
2022/11/01 12:41:25;;;;;;;;;;;;;;;-143.57;26.71;50953.13;5022586;28;19979;-67
2022/11/01 12:44:05;;;;;;;;;;;;;;;-143.57;25.31;50933.25;5060054;28;19932;-67
2022/11/01 12:46:44;;;;;;;;;;;;;;;-143.57;25.18;50937.22;5061438;28;19965;-67
2022/11/01 12:49:14;;;;;;;;;;;;;;;-143.57;24.27;50937.22;5059310;28;20003;-66
2022/11/01 12:51:46;;;;;;;;;;;;;;;-143.57;24.68;50931.25;5058287;28;20011;-67